createdAt,value
2018-05-15T00:01:04.183Z,4.53
2018-05-15T00:03:31.751Z,4.10
2018-05-15T00:05:59.339Z,4.70
2018-05-15T00:08:26.899Z,4.17
2018-05-15T00:10:54.913Z,5.13
2018-05-15T00:13:22.474Z,4.67
2018-05-15T00:15:50.274Z,4.60
2018-05-15T00:18:17.872Z,4.60
2018-05-15T00:20:45.662Z,5.60
2018-05-15T00:23:13.595Z,4.80
2018-05-15T00:25:41.165Z,4.60
2018-05-15T00:28:08.828Z,4.83
2018-05-15T00:30:36.434Z,5.00
2018-05-15T00:33:04.199Z,4.53
2018-05-15T00:35:32.004Z,5.30
2018-05-15T00:37:59.580Z,4.63
2018-05-15T00:40:27.209Z,4.13
2018-05-15T00:42:54.881Z,4.93
2018-05-15T00:45:22.586Z,4.57
2018-05-15T00:47:50.148Z,6.07
2018-05-15T00:50:18.281Z,5.40
2018-05-15T00:52:45.844Z,5.80
2018-05-15T00:55:25.212Z,6.00
2018-05-15T00:57:53.116Z,5.20
2018-05-15T01:00:20.744Z,5.50
2018-05-15T01:02:48.614Z,5.70
2018-05-15T01:05:16.173Z,6.10
2018-05-15T01:07:43.815Z,5.47
2018-05-15T01:10:11.476Z,6.40
2018-05-15T01:12:39.043Z,6.30
2018-05-15T01:15:06.652Z,4.90
2018-05-15T01:17:34.274Z,5.53
2018-05-15T01:20:01.901Z,5.97
2018-05-15T01:22:29.484Z,6.53
2018-05-15T01:24:57.131Z,6.00
2018-05-15T01:27:24.767Z,6.30
2018-05-15T01:29:52.706Z,5.77
2018-05-15T01:32:20.291Z,6.50
2018-05-15T01:34:48.056Z,5.83
2018-05-15T01:37:15.614Z,6.87
2018-05-15T01:39:43.213Z,6.60
2018-05-15T01:42:10.810Z,5.97
2018-05-15T01:44:38.472Z,6.20
2018-05-15T01:47:06.040Z,6.40
2018-05-15T01:49:33.754Z,6.43
2018-05-15T01:52:01.326Z,6.10
2018-05-15T01:54:28.893Z,6.90
2018-05-15T01:56:56.495Z,5.83
2018-05-15T01:59:24.205Z,7.23
2018-05-15T02:01:51.776Z,6.50
2018-05-15T02:04:19.351Z,5.90
2018-05-15T02:06:46.949Z,6.57
2018-05-15T02:09:14.936Z,6.80
2018-05-15T02:11:43.295Z,5.90
2018-05-15T02:14:11.287Z,7.77
2018-05-15T02:16:39.337Z,7.33
2018-05-15T02:19:07.331Z,6.80
2018-05-15T02:21:35.337Z,7.17
2018-05-15T02:24:02.974Z,6.90
2018-05-15T02:26:30.538Z,7.60
2018-05-15T02:28:58.109Z,7.37
2018-05-15T02:31:25.722Z,7.90
2018-05-15T02:33:53.388Z,6.93
2018-05-15T02:36:21.000Z,7.43
2018-05-15T02:38:48.807Z,7.80
2018-05-15T02:41:16.421Z,6.60
2018-05-15T02:43:44.220Z,8.07
2018-05-15T02:46:11.809Z,8.10
2018-05-15T02:48:39.375Z,7.80
2018-05-15T02:51:06.982Z,8.67
2018-05-15T02:53:34.839Z,7.60
2018-05-15T02:56:02.421Z,7.83
2018-05-15T02:58:30.099Z,8.00
2018-05-15T03:00:57.798Z,8.17
2018-05-15T03:03:25.377Z,8.00
2018-05-15T03:05:52.955Z,8.70
2018-05-15T03:08:20.556Z,8.33
2018-05-15T03:10:48.270Z,9.00
2018-05-15T03:13:15.939Z,7.47
2018-05-15T03:15:43.537Z,8.60
2018-05-15T03:18:11.287Z,8.07
2018-05-15T03:20:38.859Z,8.50
2018-05-15T03:23:06.426Z,8.30
2018-05-15T03:25:34.375Z,7.77
2018-05-15T03:28:01.951Z,9.10
2018-05-15T03:30:29.507Z,8.40
2018-05-15T03:32:57.122Z,8.60
2018-05-15T03:35:24.772Z,9.00
2018-05-15T03:37:52.540Z,8.33
2018-05-15T03:40:20.171Z,9.20
2018-05-15T03:42:47.972Z,9.13
2018-05-15T03:45:15.601Z,8.47
2018-05-15T03:47:43.181Z,7.57
2018-05-15T03:50:10.832Z,8.70
2018-05-15T03:52:38.902Z,8.40
2018-05-15T03:55:06.457Z,8.47
2018-05-15T03:57:34.060Z,9.87
2018-05-15T04:00:01.878Z,8.20
2018-05-15T04:02:41.097Z,9.63
2018-05-15T04:05:20.409Z,10.27
2018-05-15T04:08:14.708Z,8.70
2018-05-15T04:10:42.401Z,9.20
2018-05-15T04:13:09.986Z,8.20
2018-05-15T04:15:37.548Z,9.63
2018-05-15T04:18:05.602Z,9.07
2018-05-15T04:20:33.404Z,9.07
2018-05-15T04:23:00.962Z,8.53
2018-05-15T04:25:28.576Z,9.40
2018-05-15T04:27:56.140Z,9.70
2018-05-15T04:30:23.812Z,8.80
2018-05-15T04:32:51.381Z,10.17
2018-05-15T04:35:19.342Z,9.67
2018-05-15T04:37:47.153Z,10.90
2018-05-15T04:40:14.712Z,9.37
2018-05-15T04:42:42.302Z,9.60
2018-05-15T04:45:10.671Z,10.30
2018-05-15T04:47:38.238Z,9.17
2018-05-15T04:50:05.828Z,9.57
2018-05-15T04:52:33.456Z,9.77
2018-05-15T04:55:01.020Z,9.57
2018-05-15T04:57:28.591Z,9.97
2018-05-15T04:59:56.219Z,9.37
2018-05-15T05:02:23.859Z,11.17
2018-05-15T05:04:51.788Z,10.30
2018-05-15T05:07:19.362Z,11.87
2018-05-15T05:09:46.919Z,11.30
2018-05-15T05:12:14.524Z,10.60
2018-05-15T05:14:42.339Z,11.80
2018-05-15T05:17:09.902Z,11.17
2018-05-15T05:19:38.140Z,11.70
2018-05-15T05:22:05.732Z,12.07
2018-05-15T05:24:33.362Z,11.43
2018-05-15T05:27:01.513Z,10.73
2018-05-15T05:29:29.145Z,9.70
2018-05-15T05:31:56.797Z,10.67
2018-05-15T05:34:24.394Z,12.07
2018-05-15T05:36:52.257Z,11.13
2018-05-15T05:39:19.850Z,12.27
2018-05-15T05:41:47.433Z,12.00
2018-05-15T05:44:15.077Z,11.50
2018-05-15T05:46:42.715Z,10.40
2018-05-15T05:49:10.287Z,11.00
2018-05-15T05:51:37.952Z,10.53
2018-05-15T05:54:05.615Z,9.87
2018-05-15T05:56:33.276Z,10.03
2018-05-15T05:59:00.871Z,9.50
2018-05-15T06:01:28.444Z,10.10
2018-05-15T06:03:56.041Z,9.27
2018-05-15T06:06:23.840Z,10.00
2018-05-15T06:08:51.540Z,9.97
2018-05-15T06:11:19.105Z,9.60
2018-05-15T06:13:46.682Z,9.13
2018-05-15T06:16:14.379Z,9.50
2018-05-15T06:18:41.979Z,9.90
2018-05-15T06:21:09.577Z,10.87
2018-05-15T06:23:37.760Z,10.03
2018-05-15T06:26:05.418Z,10.27
2018-05-15T06:28:33.000Z,9.23
2018-05-15T06:31:00.594Z,8.70
2018-05-15T06:33:28.171Z,10.57
2018-05-15T06:35:56.153Z,9.43
2018-05-15T06:38:23.722Z,10.07
2018-05-15T06:40:51.294Z,10.67
2018-05-15T06:43:18.885Z,10.23
2018-05-15T06:45:46.472Z,9.60
2018-05-15T06:48:14.068Z,9.10
2018-05-15T06:50:41.629Z,9.53
2018-05-15T06:53:09.312Z,9.50
2018-05-15T06:55:36.881Z,9.83
2018-05-15T06:58:04.481Z,8.97
2018-05-15T07:00:32.438Z,8.93
2018-05-15T07:03:00.072Z,10.77
2018-05-15T07:05:27.656Z,9.00
2018-05-15T07:07:55.251Z,10.77
2018-05-15T07:10:22.829Z,10.47
2018-05-15T07:12:50.515Z,8.30
2018-05-15T07:15:18.316Z,9.00
2018-05-15T07:17:45.895Z,8.97
2018-05-15T07:20:13.485Z,8.63
2018-05-15T07:22:41.060Z,8.70
2018-05-15T07:25:08.746Z,8.23
2018-05-15T07:27:36.571Z,8.37
2018-05-15T07:30:04.418Z,8.90
2018-05-15T07:32:32.474Z,8.33
2018-05-15T07:35:00.051Z,8.60
2018-05-15T07:37:27.726Z,9.10
2018-05-15T07:39:55.416Z,8.40
2018-05-15T07:42:22.975Z,9.50
2018-05-15T07:44:50.538Z,8.33
2018-05-15T07:47:18.121Z,9.80
2018-05-15T07:49:45.707Z,8.47
2018-05-15T07:52:13.299Z,8.93
2018-05-15T07:54:40.860Z,8.40
2018-05-15T07:57:08.496Z,8.83
2018-05-15T07:59:36.079Z,8.77
2018-05-15T08:02:03.673Z,8.60
2018-05-15T08:04:31.319Z,8.60
2018-05-15T08:06:59.119Z,9.27
2018-05-15T08:09:26.943Z,9.57
2018-05-15T08:11:54.524Z,8.70
2018-05-15T08:14:22.452Z,9.07
2018-05-15T08:16:50.027Z,9.40
2018-05-15T08:19:17.600Z,7.70
2018-05-15T08:21:45.216Z,8.87
2018-05-15T08:24:12.784Z,8.70
2018-05-15T08:26:40.344Z,8.20
2018-05-15T08:29:08.423Z,8.70
2018-05-15T08:31:36.048Z,8.40
2018-05-15T08:34:03.617Z,10.43
2018-05-15T08:36:31.445Z,8.83
2018-05-15T08:38:59.277Z,9.40
2018-05-15T08:41:27.263Z,10.10
2018-05-15T08:43:55.149Z,9.30
2018-05-15T08:46:23.020Z,9.00
2018-05-15T08:48:50.631Z,7.80
2018-05-15T08:51:18.291Z,6.30
2018-05-15T08:53:46.369Z,7.27
2018-05-15T08:56:13.973Z,6.43
2018-05-15T08:58:41.660Z,7.07
2018-05-15T09:01:09.267Z,7.80
2018-05-15T09:03:37.161Z,6.10
2018-05-15T09:06:05.109Z,6.37
2018-05-15T09:08:32.683Z,11.23
2018-05-15T09:11:00.327Z,7.00
2018-05-15T09:13:28.285Z,7.80
2018-05-15T09:15:56.102Z,6.37
2018-05-15T09:18:23.825Z,6.27
2018-05-15T09:20:51.424Z,6.47
2018-05-15T09:23:19.000Z,7.13
2018-05-15T09:25:46.648Z,6.77
2018-05-15T09:28:14.240Z,7.67
2018-05-15T09:30:41.848Z,6.83
2018-05-15T09:33:09.460Z,9.03
2018-05-15T09:35:37.058Z,7.70
2018-05-15T09:38:04.696Z,7.37
2018-05-15T09:40:32.304Z,8.10
2018-05-15T09:43:00.171Z,7.27
2018-05-15T09:45:27.907Z,6.50
2018-05-15T09:47:55.479Z,7.10
2018-05-15T09:50:23.294Z,8.10
2018-05-15T09:52:50.971Z,8.03
2018-05-15T09:55:18.566Z,5.60
2018-05-15T09:57:46.474Z,5.30
2018-05-15T10:00:14.084Z,4.90
2018-05-15T10:02:41.673Z,4.67
2018-05-15T10:05:09.254Z,5.57
2018-05-15T10:07:36.879Z,7.47
2018-05-15T10:10:04.490Z,6.87
2018-05-15T10:12:32.388Z,7.00
2018-05-15T10:14:59.985Z,6.47
2018-05-15T10:17:27.660Z,5.57
2018-05-15T10:19:55.520Z,5.13
2018-05-15T10:22:23.103Z,5.17
2018-05-15T10:24:51.897Z,4.43
2018-05-15T10:27:19.452Z,4.73
2018-05-15T10:29:47.467Z,4.93
2018-05-15T10:32:15.144Z,4.13
2018-05-15T10:34:42.716Z,5.30
2018-05-15T10:37:10.843Z,4.70
2018-05-15T10:39:38.414Z,4.30
2018-05-15T10:42:05.987Z,4.60
2018-05-15T10:44:33.767Z,4.13
2018-05-15T10:47:01.407Z,4.77
2018-05-15T10:49:28.998Z,4.60
2018-05-15T10:51:56.675Z,5.40
2018-05-15T10:54:24.275Z,4.77
2018-05-15T10:56:52.125Z,5.20
2018-05-15T10:59:19.681Z,4.20
2018-05-15T11:01:47.504Z,4.70
2018-05-15T11:04:15.293Z,5.00
2018-05-15T11:06:42.865Z,4.93
2018-05-15T11:09:10.656Z,4.80
2018-05-15T11:11:38.250Z,4.60
2018-05-15T11:14:05.969Z,4.60
2018-05-15T11:16:33.589Z,4.57
2018-05-15T11:22:19.837Z,4.33
2018-05-15T11:24:53.490Z,4.50
2018-05-15T11:27:21.071Z,4.23
2018-05-15T11:29:48.638Z,4.80
2018-05-15T11:32:16.654Z,4.80
2018-05-15T11:34:44.212Z,4.13
2018-05-15T11:37:12.037Z,3.80
2018-05-15T11:39:39.624Z,3.83
2018-05-15T11:42:07.426Z,4.00
2018-05-15T11:44:35.041Z,3.60
2018-05-15T11:47:02.884Z,3.87
2018-05-15T11:49:31.512Z,3.77
2018-05-15T11:51:59.497Z,4.27
2018-05-15T11:54:26.692Z,3.93
2018-05-15T11:56:54.823Z,4.07
2018-05-15T11:59:22.376Z,3.90
2018-05-15T12:01:49.952Z,3.30
2018-05-15T12:04:17.895Z,3.50
2018-05-15T12:06:45.527Z,3.53
2018-05-15T12:09:13.195Z,3.60
2018-05-15T12:11:40.766Z,4.47
2018-05-15T12:14:08.711Z,4.13
2018-05-15T12:16:36.574Z,3.80
2018-05-15T12:19:04.172Z,3.90
2018-05-15T12:21:31.800Z,4.03
2018-05-15T12:23:59.513Z,3.73
2018-05-15T12:29:22.500Z,5.13
2018-05-15T12:31:50.164Z,3.70
2018-05-15T12:34:17.759Z,4.30
2018-05-15T12:36:45.412Z,4.20
2018-05-15T12:39:13.096Z,4.20
2018-05-15T12:41:40.941Z,4.80
2018-05-15T12:44:08.815Z,5.17
2018-05-15T12:46:36.495Z,4.07
2018-05-15T12:49:04.268Z,4.53
2018-05-15T12:51:31.883Z,4.90
2018-05-15T12:53:59.530Z,3.97
2018-05-15T12:56:27.090Z,4.20
2018-05-15T12:58:54.694Z,4.00
2018-05-15T13:01:22.355Z,3.80
2018-05-15T13:03:49.975Z,4.53
2018-05-15T13:06:17.564Z,3.67
2018-05-15T13:08:45.255Z,4.70
2018-05-15T13:11:12.819Z,3.90
2018-05-15T13:13:40.409Z,3.73
2018-05-15T13:16:08.292Z,4.40
2018-05-15T13:18:36.944Z,3.80
2018-05-15T13:21:04.504Z,4.23
2018-05-15T13:23:32.114Z,4.57
2018-05-15T13:25:59.828Z,4.33
2018-05-15T13:28:27.656Z,4.70
2018-05-15T13:30:55.266Z,5.17
2018-05-15T13:33:22.861Z,3.47
2018-05-15T13:35:50.459Z,4.27
2018-05-15T13:38:18.464Z,4.27
2018-05-15T13:40:46.058Z,4.10
2018-05-15T13:43:13.648Z,4.40
2018-05-15T13:45:41.330Z,4.50
2018-05-15T13:48:08.995Z,4.23
2018-05-15T13:50:36.657Z,5.10
2018-05-15T13:53:04.203Z,4.80
2018-05-15T13:55:32.309Z,4.90
2018-05-15T13:57:59.888Z,4.30
2018-05-15T14:00:27.458Z,4.50
2018-05-15T14:02:55.292Z,4.40
2018-05-15T14:05:22.901Z,3.87
2018-05-15T14:07:50.482Z,5.20
2018-05-15T14:10:18.159Z,4.47
2018-05-15T14:12:45.824Z,4.73
2018-05-15T14:15:13.446Z,4.40
2018-05-15T14:17:41.322Z,5.33
2018-05-15T14:20:08.916Z,4.10
2018-05-15T14:22:36.529Z,4.53
2018-05-15T14:25:04.175Z,6.00
2018-05-15T14:27:32.200Z,4.57
2018-05-15T14:29:59.845Z,5.40
2018-05-15T14:32:27.413Z,5.67
2018-05-15T14:34:55.148Z,5.37
2018-05-15T14:37:22.778Z,6.23
2018-05-15T14:39:50.856Z,4.63
2018-05-15T14:42:30.350Z,4.87
2018-05-15T14:44:57.974Z,4.67
2018-05-15T14:47:25.543Z,5.00
2018-05-15T14:49:53.136Z,4.50
2018-05-15T14:52:22.002Z,5.20
2018-05-15T14:54:49.699Z,5.67
2018-05-15T14:57:17.420Z,4.57
2018-05-15T14:59:45.032Z,5.13
2018-05-15T15:02:12.625Z,6.40
2018-05-15T15:04:40.225Z,5.03
2018-05-15T15:07:07.808Z,4.43
2018-05-15T15:09:35.421Z,5.13
2018-05-15T15:12:03.046Z,5.13
2018-05-15T15:14:30.656Z,6.00
2018-05-15T15:16:58.286Z,5.50
2018-05-15T15:19:26.196Z,5.50
2018-05-15T15:21:53.769Z,5.93
2018-05-15T15:24:21.374Z,4.83
2018-05-15T15:26:48.984Z,5.27
2018-05-15T15:29:16.963Z,5.10
2018-05-15T15:31:44.477Z,5.23
2018-05-15T15:34:12.088Z,6.43
2018-05-15T15:36:40.032Z,5.93
2018-05-15T15:39:07.841Z,5.70
2018-05-15T15:41:35.440Z,6.13
2018-05-15T15:44:03.133Z,5.57
2018-05-15T15:46:30.752Z,5.73
2018-05-15T15:48:58.921Z,5.90
2018-05-15T15:51:26.510Z,5.27
2018-05-15T15:53:54.085Z,6.30
2018-05-15T15:56:21.696Z,5.70
2018-05-15T15:58:49.324Z,5.40
2018-05-15T16:01:16.902Z,5.00
2018-05-15T16:03:45.604Z,5.27
2018-05-15T16:06:13.194Z,4.93
2018-05-15T16:08:40.997Z,5.50
2018-05-15T16:11:08.638Z,4.87
2018-05-15T16:13:36.258Z,5.20
2018-05-15T16:16:03.849Z,5.67
2018-05-15T16:18:31.427Z,5.77
2018-05-15T16:20:59.018Z,5.90
2018-05-15T16:23:26.594Z,5.27
2018-05-15T16:25:54.665Z,6.37
2018-05-15T16:28:22.570Z,6.13
2018-05-15T16:30:50.197Z,5.80
2018-05-15T16:33:17.782Z,4.20
2018-05-15T16:35:45.425Z,5.73
2018-05-15T16:38:13.139Z,6.30
2018-05-15T16:40:41.027Z,5.53
2018-05-15T16:43:08.629Z,5.70
2018-05-15T16:45:36.310Z,6.33
2018-05-15T16:48:03.972Z,5.67
2018-05-15T16:50:31.570Z,5.50
2018-05-15T16:52:59.131Z,6.20
2018-05-15T16:55:26.835Z,6.50
2018-05-15T16:57:54.393Z,6.20
2018-05-15T17:00:21.950Z,5.50
2018-05-15T17:02:49.893Z,5.33
2018-05-15T17:05:17.473Z,5.70
2018-05-15T17:07:45.134Z,6.00
2018-05-15T17:10:12.740Z,5.60
2018-05-15T17:12:40.568Z,5.43
2018-05-15T17:15:08.203Z,5.90
2018-05-15T17:17:36.035Z,5.40
2018-05-15T17:20:03.632Z,6.07
2018-05-15T17:22:31.198Z,6.07
2018-05-15T17:24:59.034Z,6.33
2018-05-15T17:27:26.709Z,5.73
2018-05-15T17:29:54.400Z,5.53
2018-05-15T17:32:21.980Z,5.77
2018-05-15T17:34:49.773Z,5.27
2018-05-15T17:37:17.353Z,6.23
2018-05-15T17:39:44.907Z,6.30
2018-05-15T17:42:12.499Z,6.50
2018-05-15T17:44:40.162Z,6.10
2018-05-15T17:47:07.739Z,6.50
2018-05-15T17:49:35.341Z,6.50
2018-05-15T17:52:03.131Z,6.20
2018-05-15T17:54:31.073Z,6.60
2018-05-15T17:56:58.887Z,6.73
2018-05-15T17:59:26.517Z,8.17
2018-05-15T18:01:54.057Z,6.60
2018-05-15T18:04:22.008Z,7.03
2018-05-15T18:06:49.838Z,7.67
2018-05-15T18:09:17.436Z,7.20
2018-05-15T18:11:45.072Z,7.33
2018-05-15T18:14:12.700Z,7.80
2018-05-15T18:16:40.282Z,7.87
2018-05-15T18:19:07.997Z,6.80
2018-05-15T18:21:35.560Z,7.57
2018-05-15T18:24:03.208Z,6.90
2018-05-15T18:26:30.800Z,7.53
2018-05-15T18:28:58.370Z,8.10
2018-05-15T18:31:25.963Z,7.80
2018-05-15T18:33:53.841Z,7.10
2018-05-15T18:36:21.720Z,7.23
2018-05-15T18:38:49.291Z,7.17
2018-05-15T18:41:16.886Z,8.20
2018-05-15T18:43:44.448Z,7.10
2018-05-15T18:46:12.043Z,8.30
2018-05-15T18:48:39.638Z,7.30
2018-05-15T18:51:07.273Z,7.00
2018-05-15T18:53:35.136Z,8.33
2018-05-15T18:56:02.798Z,7.50
2018-05-15T18:58:30.590Z,7.30
2018-05-15T19:00:58.535Z,8.80
2018-05-15T19:03:26.109Z,7.47
2018-05-15T19:05:53.701Z,7.17
2018-05-15T19:08:21.297Z,7.67
2018-05-15T19:10:48.870Z,8.27
2018-05-15T19:13:16.496Z,7.90
2018-05-15T19:15:44.115Z,7.53
2018-05-15T19:18:11.670Z,7.97
2018-05-15T19:20:39.248Z,8.13
2018-05-15T19:23:07.360Z,8.03
2018-05-15T19:25:35.181Z,7.63
2018-05-15T19:28:02.752Z,8.57
2018-05-15T19:30:30.347Z,7.00
2018-05-15T19:33:04.334Z,6.80
2018-05-15T19:35:37.747Z,7.20
2018-05-15T19:38:05.388Z,8.00
2018-05-15T19:40:32.971Z,8.10
2018-05-15T19:43:00.529Z,8.07
2018-05-15T19:45:28.120Z,7.73
2018-05-15T19:47:55.708Z,8.37
2018-05-15T19:50:23.280Z,8.90
2018-05-15T19:52:51.104Z,9.40
2018-05-15T19:55:18.685Z,9.30
2018-05-15T19:57:46.489Z,9.80
2018-05-15T20:00:14.103Z,9.43
2018-05-15T20:02:41.681Z,9.57
2018-05-15T20:05:09.241Z,10.33
2018-05-15T20:07:37.140Z,10.20
2018-05-15T20:10:04.759Z,10.73
2018-05-15T20:12:32.362Z,10.63
2018-05-15T20:14:59.928Z,11.20
2018-05-15T20:17:27.533Z,11.20
2018-05-15T20:19:55.103Z,12.90
2018-05-15T20:22:22.715Z,12.83
2018-05-15T20:24:50.373Z,12.40
2018-05-15T20:27:17.934Z,12.70
2018-05-15T20:29:45.486Z,12.53
2018-05-15T20:32:13.078Z,12.40
2018-05-15T20:34:40.783Z,12.27
2018-05-15T20:37:08.437Z,13.93
2018-05-15T20:39:36.007Z,12.37
2018-05-15T20:42:03.673Z,13.90
2018-05-15T20:44:31.382Z,13.53
2018-05-15T20:46:58.960Z,14.53
2018-05-15T20:49:26.531Z,14.63
2018-05-15T20:51:54.379Z,16.30
2018-05-15T20:54:21.939Z,15.13
2018-05-15T20:56:49.518Z,15.50
2018-05-15T20:59:17.529Z,16.73
2018-05-15T21:01:45.092Z,16.90
2018-05-15T21:04:12.668Z,17.37
2018-05-15T21:06:40.598Z,18.23
2018-05-15T21:09:08.203Z,17.10
2018-05-15T21:11:36.068Z,16.90
2018-05-15T21:14:03.700Z,16.80
2018-05-15T21:16:31.423Z,17.83
2018-05-15T21:18:59.029Z,17.17
2018-05-15T21:21:26.634Z,17.00
2018-05-15T21:23:54.316Z,18.17
2018-05-15T21:26:21.885Z,17.67
2018-05-15T21:28:49.616Z,17.17
2018-05-15T21:31:17.253Z,18.63
2018-05-15T21:33:44.872Z,17.60
2018-05-15T21:36:12.530Z,17.20
2018-05-15T21:38:40.164Z,19.80
2018-05-15T21:41:07.764Z,15.97
2018-05-15T21:43:35.603Z,14.90
2018-05-15T21:46:03.250Z,16.60
2018-05-15T21:48:30.827Z,16.63
2018-05-15T21:50:58.432Z,16.50
2018-05-15T21:53:26.175Z,14.73
2018-05-15T21:55:53.947Z,15.20
2018-05-15T21:58:21.816Z,13.70
2018-05-15T22:00:49.817Z,15.03
2018-05-15T22:03:17.539Z,13.30
2018-05-15T22:05:48.144Z,13.83
2018-05-15T22:08:15.746Z,12.83
2018-05-15T22:10:43.542Z,13.67
2018-05-15T22:13:22.963Z,12.40
2018-05-15T22:16:02.838Z,12.67
2018-05-15T22:18:42.248Z,12.80
2018-05-15T22:21:21.583Z,11.80
2018-05-15T22:23:48.895Z,10.87
2018-05-15T22:26:16.558Z,10.77
2018-05-15T22:28:44.411Z,11.70
2018-05-15T22:31:12.063Z,12.13
2018-05-15T22:33:39.848Z,10.37
2018-05-15T22:36:07.427Z,11.53
2018-05-15T22:38:35.569Z,10.23
2018-05-15T22:41:03.236Z,9.40
2018-05-15T22:43:30.826Z,9.73
2018-05-15T22:45:58.535Z,11.20
2018-05-15T22:48:26.175Z,9.60
2018-05-15T22:50:53.863Z,10.80
2018-05-15T22:53:21.569Z,10.30
2018-05-15T22:55:49.187Z,10.40
2018-05-15T22:58:17.157Z,10.17
2018-05-15T23:00:44.844Z,11.10
2018-05-15T23:03:12.476Z,10.10
2018-05-15T23:05:40.606Z,11.00
2018-05-15T23:08:08.221Z,10.23
2018-05-15T23:10:35.897Z,10.37
2018-05-15T23:13:03.793Z,11.53
2018-05-15T23:15:31.467Z,10.07
2018-05-15T23:17:59.077Z,10.20
2018-05-15T23:20:27.092Z,10.57
2018-05-15T23:22:54.651Z,10.63
2018-05-15T23:25:22.560Z,10.67
2018-05-15T23:27:50.217Z,9.40
2018-05-15T23:30:17.867Z,9.17
2018-05-15T23:32:45.432Z,9.80
2018-05-15T23:35:13.289Z,9.57
2018-05-15T23:37:41.315Z,10.40
2018-05-15T23:40:09.028Z,9.67
2018-05-15T23:42:36.671Z,9.70
2018-05-15T23:45:04.314Z,9.20
2018-05-15T23:47:32.265Z,10.17
2018-05-15T23:50:00.328Z,10.33
2018-05-15T23:52:27.919Z,10.30
2018-05-15T23:54:55.490Z,9.70
2018-05-15T23:57:23.119Z,12.13
2018-05-15T23:59:50.703Z,9.83
